• Join FlightAware (Why Join?)
  • Login
  • US Flag 
02:05PM EDT


 

Airport Tracker/Info


-or-


 

Live Flight TrackerFlight Track Log ✈ FLG4250 ✈ 31-Jul-2013 ✈ KDTW - KSYR

Flight Track Log - Related Links

Times and Time Zones

All times are in EDT time to prevent confusion due to time zone crossing. See the FLG4250 flight status page for this flight to view local times or setup timezone preferences in your user account.

Time Position Orientation Groundspeed Altitude Reporting Facility
EDT Latitude Longitude Course Direction KTS MPH feet Rate Location/Type
06:15PM 42.1994 -83.3581 82° East 148 170 1,400  Level Cleveland Center
06:16PM 42.1558 -83.3561 178° South 192 221 2,800 1,620 Climbing Cleveland Center
06:17PM 42.1019 -83.3397 167° South 245 282 4,600 2,160 Climbing Cleveland Center
06:18PM 42.2846 -82.9102 75° East  Level FlightAware Approximate
06:18PM 42.0686 -83.2461 116° Southeast 277 319 7,200  Level Cleveland Center
06:19PM 42.3139 -82.7638 75° East  Level FlightAware Approximate
06:19PM 42.1067 -83.1300 66° East 306 352 9,400  Level Cleveland Center
06:20PM 42.3303 -82.6138 82° East  Level FlightAware Approximate
06:20PM 42.1486 -83.0253 62° Northeast 325 374 11,200  Level Cleveland Center
06:21PM 42.1906 -82.9147 63° Northeast 347 399 12,700 900 Climbing Cleveland Center
06:22PM 42.2325 -82.8042 63° Northeast 360 414 13,000 120 Climbing Cleveland Center
06:23PM 42.2783 -82.6822 63° Northeast 367 422 13,000 180 Level Cleveland Center
06:24PM 42.3200 -82.5742 62° Northeast 361 415 13,400 900 Climbing Cleveland Center
06:25PM 42.3639 -82.4464 65° Northeast 361 415 14,800 1,440 Climbing Cleveland Center
06:26PM 42.3597 -82.3056 92° East 361 415 16,300 1,500 Climbing Cleveland Center
06:27PM 42.3536 -82.1594 93° East 368 423 17,800 1,500 Climbing Cleveland Center
06:28PM 42.3494 -81.9964 92° East 376 433 19,300 1,200 Climbing Cleveland Center
06:29PM 42.3406 -81.8528 95° East 383 441 20,300 840 Climbing Cleveland Center
06:30PM 42.3361 -81.6983 92° East 400 460 21,000 420 Climbing Cleveland Center
06:31PM 42.3269 -81.5408 94° East 411 473 21,200 360 Climbing Cleveland Center
06:32PM 42.3197 -81.3864 94° East 404 465 21,800 540 Climbing Cleveland Center
06:33PM 42.3125 -81.2233 93° East 425 489 22,300 480 Climbing Cleveland Center
06:34PM 42.3050 -81.0603 94° East 430 495 22,800 420 Climbing Cleveland Center
06:35PM 42.2950 -80.9061 95° East 440 506 23,200 420 Climbing Cleveland Center
06:36PM 42.3225 -80.7461 77° East 440 506 23,700 480 Climbing Cleveland Center
06:37PM 42.3539 -80.5775 76° East 452 520 24,200 540 Climbing Cleveland Center
06:38PM 42.3872 -80.4117 75° East 452 520 24,800 360 Climbing Cleveland Center
06:39PM 42.4181 -80.2400 76° East 457 526 25,000 60 Climbing Cleveland Center
06:40PM 42.4528 -80.0711 74° East 457 526 25,000  Level Cleveland Center
06:41PM 42.4914 -79.8764 75° East 467 537 25,000  Level Cleveland Center
06:42PM 42.5214 -79.7014 77° East 473 544 25,000  Level Cleveland Center
06:43PM 42.5533 -79.5233 76° East 473 544 25,000  Level Cleveland Center
06:44PM 42.5869 -79.3453 76° East 478 550 25,000  Level Cleveland Center
06:45PM 42.6161 -79.1642 78° East 483 556 25,000  Level Cleveland Center
06:46PM 42.6433 -79.0081 77° East 483 556 25,000  Level Cleveland Center
06:47PM 42.6761 -78.8294 76° East 483 556 25,000  Level Cleveland Center
06:48PM 42.7067 -78.6478 77° East 488 562 25,000  Level Cleveland Center
06:49PM 42.7369 -78.4686 77° East 488 562 25,000  Level Cleveland Center
06:50PM 42.7689 -78.2894 76° East 488 562 25,000 -660 Level Cleveland Center
06:51PM 42.7692 -78.1028 90° East 488 562 23,700 -1,620 Descending Cleveland Center
06:52PM 42.7653 -77.9275 92° East 476 548 21,800 -2,040 Descending Cleveland Center
06:53PM 42.7656 -77.7606 90° East 454 522 19,700 -1,620 Descending Cleveland Center
06:54PM 42.7886 -77.6067 78° East 430 495 18,600 -1,080 Descending Cleveland Center
06:55PM 42.8244 -77.4550 72° East 417 480 17,600 -1,020 Descending Cleveland Center
06:56PM 42.8831 -77.3217 59° Northeast 403 464 16,600 -1,020 Descending Cleveland Center
06:57PM 42.9506 -77.1961 54° Northeast 403 464 15,600 -1,020 Descending Cleveland Center
06:59PM 43.0475 -76.8275 70° East 421 484 13,100 -1,140 Descending Boston Center
07:01PM 43.0625 -76.6494 83° East 405 466 11,700 -1,140 Descending Boston Center
07:02PM 43.0761 -76.5025 83° East 384 442 10,700 -900 Descending Boston Center
07:02PM 43.0925 -76.3928 78° East 319 367 10,000 -1,500 Descending Boston Center
07:04PM 43.1356 -76.2958 59° Northeast 287 330 7,900 -2,040 Descending Boston Center
07:05PM 43.1783 -76.1989 59° Northeast 287 330 6,000 -1,500 Descending Boston Center
07:06PM 43.1858 -76.0939 84° East 265 305 4,900 -960 Descending Boston Center
07:07PM 43.1908 -76.0058 86° East 222 255 4,100 -1,080 Descending Boston Center
07:08PM 43.1458 -75.9806 158° South 177 204 2,800 -1,140 Descending Boston Center
07:09PM 43.1133 -76.0156 218° Southwest 146 168 1,800 -960 Descending Boston Center
07:10PM 43.1117 -76.0694 268° West 141 162 900 -900 Descending Boston Center